sensor_id;sensor_type;location;lat;lon;timestamp;P1;durP1;ratioP1;P2;durP2;ratioP2
49029;SDS011;43337;52.070;4.508;2023-04-25T00:01:20;23.83;;;2.85;;
49029;SDS011;43337;52.070;4.508;2023-04-25T00:03:46;15.52;;;3.30;;
49029;SDS011;43337;52.070;4.508;2023-04-25T00:06:12;15.40;;;3.05;;
49029;SDS011;43337;52.070;4.508;2023-04-25T00:08:38;12.10;;;3.20;;
49029;SDS011;43337;52.070;4.508;2023-04-25T00:11:03;12.45;;;2.80;;
49029;SDS011;43337;52.070;4.508;2023-04-25T00:13:29;9.55;;;1.98;;
49029;SDS011;43337;52.070;4.508;2023-04-25T00:15:54;15.05;;;2.13;;
49029;SDS011;43337;52.070;4.508;2023-04-25T00:18:21;19.23;;;3.40;;
49029;SDS011;43337;52.070;4.508;2023-04-25T00:20:46;17.08;;;2.80;;
49029;SDS011;43337;52.070;4.508;2023-04-25T00:23:13;15.70;;;2.67;;
49029;SDS011;43337;52.070;4.508;2023-04-25T00:25:43;12.55;;;2.35;;
49029;SDS011;43337;52.070;4.508;2023-04-25T00:28:09;12.10;;;2.63;;
49029;SDS011;43337;52.070;4.508;2023-04-25T00:30:35;13.68;;;3.03;;
49029;SDS011;43337;52.070;4.508;2023-04-25T00:33:01;12.55;;;2.78;;
49029;SDS011;43337;52.070;4.508;2023-04-25T00:35:26;15.10;;;2.85;;
49029;SDS011;43337;52.070;4.508;2023-04-25T00:37:52;15.68;;;3.50;;
49029;SDS011;43337;52.070;4.508;2023-04-25T00:40:17;10.57;;;2.83;;
49029;SDS011;43337;52.070;4.508;2023-04-25T00:42:42;18.50;;;4.13;;
49029;SDS011;43337;52.070;4.508;2023-04-25T00:45:10;12.02;;;3.30;;
49029;SDS011;43337;52.070;4.508;2023-04-25T00:47:39;27.67;;;4.75;;
49029;SDS011;43337;52.070;4.508;2023-04-25T00:50:05;14.10;;;2.95;;
49029;SDS011;43337;52.070;4.508;2023-04-25T00:52:31;13.68;;;2.53;;
49029;SDS011;43337;52.070;4.508;2023-04-25T00:54:57;18.30;;;2.75;;
49029;SDS011;43337;52.070;4.508;2023-04-25T00:57:22;14.23;;;2.25;;
49029;SDS011;43337;52.070;4.508;2023-04-25T00:59:48;8.65;;;2.47;;
49029;SDS011;43337;52.070;4.508;2023-04-25T01:02:16;14.95;;;2.30;;
49029;SDS011;43337;52.070;4.508;2023-04-25T01:04:42;14.43;;;2.30;;
49029;SDS011;43337;52.070;4.508;2023-04-25T01:07:07;11.57;;;2.63;;
49029;SDS011;43337;52.070;4.508;2023-04-25T01:09:33;14.43;;;2.97;;
49029;SDS011;43337;52.070;4.508;2023-04-25T01:11:59;7.82;;;2.30;;
49029;SDS011;43337;52.070;4.508;2023-04-25T01:14:26;7.13;;;2.05;;
49029;SDS011;43337;52.070;4.508;2023-04-25T01:16:51;11.60;;;2.25;;
49029;SDS011;43337;52.070;4.508;2023-04-25T01:19:17;8.32;;;2.90;;
49029;SDS011;43337;52.070;4.508;2023-04-25T01:21:44;10.57;;;2.70;;
49029;SDS011;43337;52.070;4.508;2023-04-25T01:24:10;8.20;;;2.17;;
49029;SDS011;43337;52.070;4.508;2023-04-25T01:26:35;12.23;;;4.30;;
49029;SDS011;43337;52.070;4.508;2023-04-25T01:29:03;12.60;;;2.55;;
49029;SDS011;43337;52.070;4.508;2023-04-25T01:31:29;8.48;;;1.67;;
49029;SDS011;43337;52.070;4.508;2023-04-25T01:33:55;13.05;;;1.80;;
49029;SDS011;43337;52.070;4.508;2023-04-25T01:36:21;13.00;;;3.22;;
49029;SDS011;43337;52.070;4.508;2023-04-25T01:38:47;16.10;;;2.13;;
49029;SDS011;43337;52.070;4.508;2023-04-25T01:41:12;11.30;;;2.65;;
49029;SDS011;43337;52.070;4.508;2023-04-25T01:43:39;11.52;;;2.83;;
49029;SDS011;43337;52.070;4.508;2023-04-25T01:46:04;9.00;;;1.85;;
49029;SDS011;43337;52.070;4.508;2023-04-25T01:48:30;9.60;;;2.40;;
49029;SDS011;43337;52.070;4.508;2023-04-25T01:50:55;14.02;;;2.15;;
49029;SDS011;43337;52.070;4.508;2023-04-25T01:53:21;7.63;;;2.00;;
49029;SDS011;43337;52.070;4.508;2023-04-25T01:55:47;15.73;;;2.63;;
49029;SDS011;43337;52.070;4.508;2023-04-25T01:58:13;9.52;;;1.98;;
49029;SDS011;43337;52.070;4.508;2023-04-25T02:00:38;12.13;;;2.47;;
49029;SDS011;43337;52.070;4.508;2023-04-25T02:03:04;13.10;;;2.00;;
49029;SDS011;43337;52.070;4.508;2023-04-25T02:05:39;13.68;;;2.70;;
49029;SDS011;43337;52.070;4.508;2023-04-25T02:08:05;10.25;;;2.30;;
49029;SDS011;43337;52.070;4.508;2023-04-25T02:10:32;7.75;;;2.63;;
49029;SDS011;43337;52.070;4.508;2023-04-25T02:12:58;8.40;;;1.75;;
49029;SDS011;43337;52.070;4.508;2023-04-25T02:15:24;6.78;;;2.00;;
49029;SDS011;43337;52.070;4.508;2023-04-25T02:17:49;15.85;;;2.65;;
49029;SDS011;43337;52.070;4.508;2023-04-25T02:20:17;10.93;;;2.60;;
49029;SDS011;43337;52.070;4.508;2023-04-25T02:22:44;18.98;;;2.72;;
49029;SDS011;43337;52.070;4.508;2023-04-25T02:25:10;12.30;;;2.70;;
49029;SDS011;43337;52.070;4.508;2023-04-25T02:27:36;7.85;;;2.30;;
49029;SDS011;43337;52.070;4.508;2023-04-25T02:30:02;17.50;;;2.97;;
49029;SDS011;43337;52.070;4.508;2023-04-25T02:32:27;13.55;;;2.55;;
49029;SDS011;43337;52.070;4.508;2023-04-25T02:34:53;9.38;;;2.28;;
49029;SDS011;43337;52.070;4.508;2023-04-25T02:37:19;16.58;;;2.10;;
49029;SDS011;43337;52.070;4.508;2023-04-25T02:39:44;15.90;;;2.05;;
49029;SDS011;43337;52.070;4.508;2023-04-25T02:42:09;8.80;;;1.90;;
49029;SDS011;43337;52.070;4.508;2023-04-25T02:44:35;11.55;;;2.28;;
49029;SDS011;43337;52.070;4.508;2023-04-25T02:47:00;10.75;;;1.33;;
49029;SDS011;43337;52.070;4.508;2023-04-25T02:49:25;9.65;;;1.85;;
49029;SDS011;43337;52.070;4.508;2023-04-25T02:51:51;11.50;;;2.55;;
49029;SDS011;43337;52.070;4.508;2023-04-25T02:54:16;8.82;;;1.75;;
49029;SDS011;43337;52.070;4.508;2023-04-25T02:56:41;10.30;;;1.70;;
49029;SDS011;43337;52.070;4.508;2023-04-25T02:59:07;6.18;;;1.77;;
49029;SDS011;43337;52.070;4.508;2023-04-25T03:01:32;8.23;;;1.52;;
49029;SDS011;43337;52.070;4.508;2023-04-25T03:03:57;7.25;;;2.22;;
49029;SDS011;43337;52.070;4.508;2023-04-25T03:06:23;8.00;;;1.67;;
49029;SDS011;43337;52.070;4.508;2023-04-25T03:08:48;9.07;;;1.77;;
49029;SDS011;43337;52.070;4.508;2023-04-25T03:11:13;5.75;;;1.30;;
49029;SDS011;43337;52.070;4.508;2023-04-25T03:13:39;8.63;;;1.50;;
49029;SDS011;43337;52.070;4.508;2023-04-25T03:16:04;11.00;;;1.63;;
49029;SDS011;43337;52.070;4.508;2023-04-25T03:18:30;10.18;;;1.70;;
49029;SDS011;43337;52.070;4.508;2023-04-25T03:20:55;11.93;;;1.90;;
49029;SDS011;43337;52.070;4.508;2023-04-25T03:23:21;9.02;;;1.30;;
49029;SDS011;43337;52.070;4.508;2023-04-25T03:25:46;10.23;;;1.42;;
49029;SDS011;43337;52.070;4.508;2023-04-25T03:28:12;12.25;;;2.10;;
49029;SDS011;43337;52.070;4.508;2023-04-25T03:30:37;8.15;;;1.77;;
49029;SDS011;43337;52.070;4.508;2023-04-25T03:33:02;13.52;;;1.60;;
49029;SDS011;43337;52.070;4.508;2023-04-25T03:35:28;9.57;;;2.63;;
49029;SDS011;43337;52.070;4.508;2023-04-25T03:37:53;11.80;;;2.97;;
49029;SDS011;43337;52.070;4.508;2023-04-25T03:40:18;12.35;;;1.65;;
49029;SDS011;43337;52.070;4.508;2023-04-25T03:42:44;11.20;;;2.08;;
49029;SDS011;43337;52.070;4.508;2023-04-25T03:45:09;10.20;;;1.80;;
49029;SDS011;43337;52.070;4.508;2023-04-25T03:47:35;14.15;;;1.80;;
49029;SDS011;43337;52.070;4.508;2023-04-25T03:50:00;17.88;;;1.65;;
49029;SDS011;43337;52.070;4.508;2023-04-25T03:52:27;9.02;;;1.90;;
49029;SDS011;43337;52.070;4.508;2023-04-25T03:54:53;21.42;;;4.00;;
49029;SDS011;43337;52.070;4.508;2023-04-25T03:57:18;11.50;;;1.65;;
49029;SDS011;43337;52.070;4.508;2023-04-25T03:59:43;10.07;;;1.85;;
49029;SDS011;43337;52.070;4.508;2023-04-25T04:02:09;9.20;;;1.55;;
49029;SDS011;43337;52.070;4.508;2023-04-25T04:04:35;12.45;;;2.70;;
49029;SDS011;43337;52.070;4.508;2023-04-25T04:07:00;15.25;;;2.00;;
49029;SDS011;43337;52.070;4.508;2023-04-25T04:09:25;10.45;;;2.65;;
49029;SDS011;43337;52.070;4.508;2023-04-25T04:11:52;11.50;;;1.95;;
49029;SDS011;43337;52.070;4.508;2023-04-25T04:14:17;9.77;;;1.95;;
49029;SDS011;43337;52.070;4.508;2023-04-25T04:16:43;11.15;;;1.52;;
49029;SDS011;43337;52.070;4.508;2023-04-25T04:19:08;10.10;;;1.92;;
49029;SDS011;43337;52.070;4.508;2023-04-25T04:21:33;9.23;;;2.17;;
49029;SDS011;43337;52.070;4.508;2023-04-25T04:23:59;10.20;;;1.73;;
49029;SDS011;43337;52.070;4.508;2023-04-25T04:26:25;11.75;;;2.38;;
49029;SDS011;43337;52.070;4.508;2023-04-25T04:28:51;6.32;;;1.40;;
49029;SDS011;43337;52.070;4.508;2023-04-25T04:31:16;16.50;;;2.33;;
49029;SDS011;43337;52.070;4.508;2023-04-25T04:33:44;6.05;;;1.60;;
49029;SDS011;43337;52.070;4.508;2023-04-25T04:36:10;9.55;;;2.05;;
49029;SDS011;43337;52.070;4.508;2023-04-25T04:38:36;18.90;;;2.80;;
49029;SDS011;43337;52.070;4.508;2023-04-25T04:41:02;13.23;;;2.45;;
49029;SDS011;43337;52.070;4.508;2023-04-25T04:43:28;15.02;;;2.15;;
49029;SDS011;43337;52.070;4.508;2023-04-25T04:45:54;15.88;;;2.15;;
49029;SDS011;43337;52.070;4.508;2023-04-25T04:48:21;7.65;;;1.10;;
49029;SDS011;43337;52.070;4.508;2023-04-25T04:50:47;10.68;;;1.52;;
49029;SDS011;43337;52.070;4.508;2023-04-25T04:53:13;8.60;;;1.30;;
49029;SDS011;43337;52.070;4.508;2023-04-25T04:55:38;13.30;;;1.65;;
49029;SDS011;43337;52.070;4.508;2023-04-25T04:58:07;6.97;;;2.15;;
49029;SDS011;43337;52.070;4.508;2023-04-25T05:00:33;7.50;;;1.73;;
49029;SDS011;43337;52.070;4.508;2023-04-25T05:02:59;6.65;;;1.38;;
49029;SDS011;43337;52.070;4.508;2023-04-25T05:05:24;9.40;;;1.67;;
49029;SDS011;43337;52.070;4.508;2023-04-25T05:07:50;8.15;;;1.50;;
49029;SDS011;43337;52.070;4.508;2023-04-25T05:10:16;7.97;;;1.70;;
49029;SDS011;43337;52.070;4.508;2023-04-25T05:12:42;10.27;;;1.77;;
49029;SDS011;43337;52.070;4.508;2023-04-25T05:15:08;12.05;;;1.77;;
49029;SDS011;43337;52.070;4.508;2023-04-25T05:17:33;10.95;;;1.95;;
49029;SDS011;43337;52.070;4.508;2023-04-25T05:19:59;5.55;;;2.08;;
49029;SDS011;43337;52.070;4.508;2023-04-25T05:22:24;7.38;;;1.30;;
49029;SDS011;43337;52.070;4.508;2023-04-25T05:24:50;10.18;;;1.77;;
49029;SDS011;43337;52.070;4.508;2023-04-25T05:27:16;8.98;;;1.17;;
49029;SDS011;43337;52.070;4.508;2023-04-25T05:29:43;7.40;;;1.42;;
49029;SDS011;43337;52.070;4.508;2023-04-25T05:32:08;5.32;;;1.10;;
49029;SDS011;43337;52.070;4.508;2023-04-25T05:34:34;7.38;;;1.38;;
49029;SDS011;43337;52.070;4.508;2023-04-25T05:36:59;6.75;;;1.10;;
49029;SDS011;43337;52.070;4.508;2023-04-25T05:39:25;6.32;;;1.08;;
49029;SDS011;43337;52.070;4.508;2023-04-25T05:41:51;6.05;;;1.33;;
49029;SDS011;43337;52.070;4.508;2023-04-25T05:44:16;9.82;;;1.88;;
49029;SDS011;43337;52.070;4.508;2023-04-25T05:46:42;3.25;;;0.82;;
49029;SDS011;43337;52.070;4.508;2023-04-25T05:49:07;8.43;;;1.20;;
49029;SDS011;43337;52.070;4.508;2023-04-25T05:51:32;7.35;;;1.30;;
49029;SDS011;43337;52.070;4.508;2023-04-25T05:53:58;5.90;;;0.95;;
49029;SDS011;43337;52.070;4.508;2023-04-25T05:56:23;3.33;;;1.08;;
49029;SDS011;43337;52.070;4.508;2023-04-25T05:58:49;4.82;;;0.90;;
49029;SDS011;43337;52.070;4.508;2023-04-25T06:01:14;8.02;;;1.20;;
49029;SDS011;43337;52.070;4.508;2023-04-25T06:03:39;7.40;;;1.00;;
49029;SDS011;43337;52.070;4.508;2023-04-25T06:06:07;4.68;;;0.90;;
49029;SDS011;43337;52.070;4.508;2023-04-25T06:08:33;6.38;;;1.70;;
49029;SDS011;43337;52.070;4.508;2023-04-25T06:10:58;5.50;;;0.85;;
49029;SDS011;43337;52.070;4.508;2023-04-25T06:13:24;4.57;;;1.40;;
49029;SDS011;43337;52.070;4.508;2023-04-25T06:15:49;8.70;;;1.83;;
49029;SDS011;43337;52.070;4.508;2023-04-25T06:18:14;5.63;;;1.33;;
49029;SDS011;43337;52.070;4.508;2023-04-25T06:20:40;6.07;;;1.77;;
49029;SDS011;43337;52.070;4.508;2023-04-25T06:23:05;6.95;;;1.65;;
49029;SDS011;43337;52.070;4.508;2023-04-25T06:25:30;5.10;;;1.20;;
49029;SDS011;43337;52.070;4.508;2023-04-25T06:27:56;4.10;;;1.00;;
49029;SDS011;43337;52.070;4.508;2023-04-25T06:30:21;4.13;;;1.00;;
49029;SDS011;43337;52.070;4.508;2023-04-25T06:32:50;5.43;;;1.02;;
49029;SDS011;43337;52.070;4.508;2023-04-25T06:35:16;5.75;;;1.30;;
49029;SDS011;43337;52.070;4.508;2023-04-25T06:37:41;6.70;;;2.38;;
49029;SDS011;43337;52.070;4.508;2023-04-25T06:40:07;12.45;;;3.17;;
49029;SDS011;43337;52.070;4.508;2023-04-25T06:42:33;9.52;;;2.42;;
49029;SDS011;43337;52.070;4.508;2023-04-25T06:44:58;9.13;;;2.45;;
49029;SDS011;43337;52.070;4.508;2023-04-25T06:47:23;14.27;;;2.70;;
49029;SDS011;43337;52.070;4.508;2023-04-25T06:49:49;4.72;;;1.25;;
49029;SDS011;43337;52.070;4.508;2023-04-25T06:52:14;15.60;;;3.47;;
49029;SDS011;43337;52.070;4.508;2023-04-25T06:54:40;14.35;;;3.60;;
49029;SDS011;43337;52.070;4.508;2023-04-25T06:57:05;12.93;;;2.53;;
49029;SDS011;43337;52.070;4.508;2023-04-25T06:59:31;7.20;;;1.70;;
49029;SDS011;43337;52.070;4.508;2023-04-25T07:01:57;9.02;;;2.70;;
49029;SDS011;43337;52.070;4.508;2023-04-25T07:04:23;9.18;;;2.97;;
49029;SDS011;43337;52.070;4.508;2023-04-25T07:06:48;9.10;;;2.58;;
49029;SDS011;43337;52.070;4.508;2023-04-25T07:09:14;7.65;;;1.92;;
49029;SDS011;43337;52.070;4.508;2023-04-25T07:11:39;7.32;;;1.83;;
49029;SDS011;43337;52.070;4.508;2023-04-25T07:14:05;8.35;;;1.35;;
49029;SDS011;43337;52.070;4.508;2023-04-25T07:16:30;6.32;;;1.85;;
49029;SDS011;43337;52.070;4.508;2023-04-25T07:18:56;8.90;;;1.48;;
49029;SDS011;43337;52.070;4.508;2023-04-25T07:21:21;8.73;;;1.42;;
49029;SDS011;43337;52.070;4.508;2023-04-25T07:23:47;7.55;;;1.35;;
49029;SDS011;43337;52.070;4.508;2023-04-25T07:26:12;9.73;;;1.65;;
49029;SDS011;43337;52.070;4.508;2023-04-25T07:28:38;6.80;;;1.13;;
49029;SDS011;43337;52.070;4.508;2023-04-25T07:31:03;6.22;;;1.52;;
49029;SDS011;43337;52.070;4.508;2023-04-25T07:33:29;5.68;;;0.90;;
49029;SDS011;43337;52.070;4.508;2023-04-25T07:35:54;7.45;;;1.45;;
49029;SDS011;43337;52.070;4.508;2023-04-25T07:38:20;7.13;;;1.08;;
49029;SDS011;43337;52.070;4.508;2023-04-25T07:40:47;7.38;;;1.17;;
49029;SDS011;43337;52.070;4.508;2023-04-25T07:43:12;4.25;;;0.70;;
49029;SDS011;43337;52.070;4.508;2023-04-25T07:45:41;7.93;;;0.88;;
49029;SDS011;43337;52.070;4.508;2023-04-25T07:48:07;4.47;;;0.80;;
49029;SDS011;43337;52.070;4.508;2023-04-25T07:50:32;5.30;;;0.82;;
49029;SDS011;43337;52.070;4.508;2023-04-25T07:52:58;5.70;;;1.00;;
49029;SDS011;43337;52.070;4.508;2023-04-25T07:55:23;8.48;;;1.17;;
49029;SDS011;43337;52.070;4.508;2023-04-25T07:57:48;5.28;;;0.70;;
49029;SDS011;43337;52.070;4.508;2023-04-25T08:00:14;7.80;;;0.90;;
49029;SDS011;43337;52.070;4.508;2023-04-25T08:02:40;4.82;;;1.13;;
49029;SDS011;43337;52.070;4.508;2023-04-25T08:05:05;4.35;;;1.00;;
49029;SDS011;43337;52.070;4.508;2023-04-25T08:07:33;9.05;;;1.50;;
49029;SDS011;43337;52.070;4.508;2023-04-25T08:09:58;8.25;;;1.48;;
49029;SDS011;43337;52.070;4.508;2023-04-25T08:12:24;8.48;;;1.48;;
49029;SDS011;43337;52.070;4.508;2023-04-25T08:14:49;9.05;;;1.45;;
49029;SDS011;43337;52.070;4.508;2023-04-25T08:17:15;4.80;;;0.68;;
49029;SDS011;43337;52.070;4.508;2023-04-25T08:19:41;5.25;;;0.88;;
49029;SDS011;43337;52.070;4.508;2023-04-25T08:22:06;10.02;;;1.23;;
49029;SDS011;43337;52.070;4.508;2023-04-25T08:24:31;6.50;;;1.10;;
49029;SDS011;43337;52.070;4.508;2023-04-25T08:26:57;8.65;;;1.73;;
49029;SDS011;43337;52.070;4.508;2023-04-25T08:29:23;11.15;;;1.15;;
49029;SDS011;43337;52.070;4.508;2023-04-25T08:31:50;4.88;;;0.88;;
49029;SDS011;43337;52.070;4.508;2023-04-25T08:34:17;7.88;;;1.40;;
49029;SDS011;43337;52.070;4.508;2023-04-25T08:36:43;6.50;;;1.02;;
49029;SDS011;43337;52.070;4.508;2023-04-25T08:39:08;6.78;;;0.80;;
49029;SDS011;43337;52.070;4.508;2023-04-25T08:41:34;9.13;;;1.55;;
49029;SDS011;43337;52.070;4.508;2023-04-25T08:44:02;3.97;;;0.82;;
49029;SDS011;43337;52.070;4.508;2023-04-25T08:46:28;9.38;;;0.90;;
49029;SDS011;43337;52.070;4.508;2023-04-25T08:48:56;5.97;;;1.08;;
49029;SDS011;43337;52.070;4.508;2023-04-25T08:51:25;5.18;;;0.60;;
49029;SDS011;43337;52.070;4.508;2023-04-25T08:53:55;12.85;;;1.30;;
49029;SDS011;43337;52.070;4.508;2023-04-25T08:56:26;8.32;;;0.90;;
49029;SDS011;43337;52.070;4.508;2023-04-25T08:58:52;4.00;;;0.90;;
49029;SDS011;43337;52.070;4.508;2023-04-25T09:01:17;7.82;;;0.90;;
49029;SDS011;43337;52.070;4.508;2023-04-25T09:03:43;6.10;;;1.23;;
49029;SDS011;43337;52.070;4.508;2023-04-25T09:06:10;3.08;;;0.73;;
49029;SDS011;43337;52.070;4.508;2023-04-25T09:08:36;5.35;;;0.70;;
49029;SDS011;43337;52.070;4.508;2023-04-25T09:11:02;8.77;;;1.00;;
49029;SDS011;43337;52.070;4.508;2023-04-25T09:13:28;6.22;;;0.93;;
49029;SDS011;43337;52.070;4.508;2023-04-25T09:15:55;3.05;;;0.88;;
49029;SDS011;43337;52.070;4.508;2023-04-25T09:18:25;4.55;;;0.77;;
49029;SDS011;43337;52.070;4.508;2023-04-25T09:21:13;7.40;;;0.90;;
49029;SDS011;43337;52.070;4.508;2023-04-25T09:23:41;8.65;;;1.30;;
49029;SDS011;43337;52.070;4.508;2023-04-25T09:26:16;7.45;;;0.90;;
49029;SDS011;43337;52.070;4.508;2023-04-25T09:28:45;9.88;;;1.60;;
49029;SDS011;43337;52.070;4.508;2023-04-25T09:31:20;4.00;;;1.42;;
49029;SDS011;43337;52.070;4.508;2023-04-25T09:33:46;6.15;;;0.88;;
49029;SDS011;43337;52.070;4.508;2023-04-25T09:36:12;5.50;;;0.93;;
49029;SDS011;43337;52.070;4.508;2023-04-25T09:38:42;7.40;;;1.05;;
49029;SDS011;43337;52.070;4.508;2023-04-25T09:41:10;6.40;;;1.13;;
49029;SDS011;43337;52.070;4.508;2023-04-25T09:43:36;6.40;;;0.85;;
49029;SDS011;43337;52.070;4.508;2023-04-25T09:46:03;5.47;;;0.82;;
49029;SDS011;43337;52.070;4.508;2023-04-25T09:48:33;6.82;;;1.15;;
49029;SDS011;43337;52.070;4.508;2023-04-25T09:51:08;6.90;;;1.75;;
49029;SDS011;43337;52.070;4.508;2023-04-25T09:53:35;7.05;;;1.27;;
49029;SDS011;43337;52.070;4.508;2023-04-25T09:56:03;6.10;;;0.82;;
49029;SDS011;43337;52.070;4.508;2023-04-25T09:58:30;11.00;;;2.00;;
49029;SDS011;43337;52.070;4.508;2023-04-25T10:00:57;5.65;;;1.02;;
49029;SDS011;43337;52.070;4.508;2023-04-25T10:03:25;6.40;;;1.40;;
49029;SDS011;43337;52.070;4.508;2023-04-25T10:05:51;5.95;;;1.42;;
49029;SDS011;43337;52.070;4.508;2023-04-25T10:08:18;9.20;;;1.38;;
49029;SDS011;43337;52.070;4.508;2023-04-25T10:10:44;8.88;;;1.17;;
49029;SDS011;43337;52.070;4.508;2023-04-25T10:13:12;12.60;;;2.70;;
49029;SDS011;43337;52.070;4.508;2023-04-25T10:15:39;7.95;;;1.58;;
49029;SDS011;43337;52.070;4.508;2023-04-25T10:18:06;6.13;;;1.20;;
49029;SDS011;43337;52.070;4.508;2023-04-25T10:20:32;4.05;;;0.90;;
49029;SDS011;43337;52.070;4.508;2023-04-25T10:22:58;6.03;;;0.70;;
49029;SDS011;43337;52.070;4.508;2023-04-25T10:25:32;5.50;;;0.82;;
49029;SDS011;43337;52.070;4.508;2023-04-25T10:27:59;7.97;;;1.20;;
49029;SDS011;43337;52.070;4.508;2023-04-25T10:30:25;8.82;;;0.90;;
49029;SDS011;43337;52.070;4.508;2023-04-25T10:32:51;5.15;;;1.10;;
49029;SDS011;43337;52.070;4.508;2023-04-25T10:35:24;6.32;;;0.80;;
49029;SDS011;43337;52.070;4.508;2023-04-25T10:40:22;2.95;;;0.70;;
49029;SDS011;43337;52.070;4.508;2023-04-25T10:42:48;7.93;;;1.35;;
49029;SDS011;43337;52.070;4.508;2023-04-25T10:45:13;4.40;;;0.70;;
49029;SDS011;43337;52.070;4.508;2023-04-25T10:47:43;2.78;;;0.80;;
49029;SDS011;43337;52.070;4.508;2023-04-25T10:50:09;7.18;;;1.08;;
49029;SDS011;43337;52.070;4.508;2023-04-25T10:52:35;5.57;;;1.63;;
49029;SDS011;43337;52.070;4.508;2023-04-25T10:55:04;7.95;;;1.00;;
49029;SDS011;43337;52.070;4.508;2023-04-25T10:57:30;6.10;;;1.10;;
49029;SDS011;43337;52.070;4.508;2023-04-25T11:00:15;6.03;;;1.00;;
49029;SDS011;43337;52.070;4.508;2023-04-25T11:05:09;6.72;;;1.25;;
49029;SDS011;43337;52.070;4.508;2023-04-25T11:07:54;8.68;;;1.00;;
49029;SDS011;43337;52.070;4.508;2023-04-25T11:10:25;4.55;;;0.80;;
49029;SDS011;43337;52.070;4.508;2023-04-25T11:12:52;6.40;;;1.10;;
49029;SDS011;43337;52.070;4.508;2023-04-25T11:15:17;7.13;;;1.00;;
49029;SDS011;43337;52.070;4.508;2023-04-25T11:17:43;6.07;;;1.00;;
49029;SDS011;43337;52.070;4.508;2023-04-25T11:20:11;6.43;;;1.00;;
49029;SDS011;43337;52.070;4.508;2023-04-25T11:22:39;7.20;;;1.02;;
49029;SDS011;43337;52.070;4.508;2023-04-25T11:25:08;15.15;;;1.20;;
49029;SDS011;43337;52.070;4.508;2023-04-25T11:27:37;4.65;;;1.08;;
49029;SDS011;43337;52.070;4.508;2023-04-25T11:30:15;5.40;;;0.75;;
49029;SDS011;43337;52.070;4.508;2023-04-25T11:32:41;9.32;;;1.35;;
49029;SDS011;43337;52.070;4.508;2023-04-25T11:35:10;6.60;;;1.15;;
49029;SDS011;43337;52.070;4.508;2023-04-25T11:37:36;5.85;;;1.10;;
49029;SDS011;43337;52.070;4.508;2023-04-25T11:40:04;8.82;;;1.30;;
49029;SDS011;43337;52.070;4.508;2023-04-25T11:42:34;5.97;;;0.85;;
49029;SDS011;43337;52.070;4.508;2023-04-25T11:45:02;10.20;;;1.45;;
49029;SDS011;43337;52.070;4.508;2023-04-25T11:47:32;5.00;;;0.80;;
49029;SDS011;43337;52.070;4.508;2023-04-25T11:49:58;6.10;;;0.98;;
49029;SDS011;43337;52.070;4.508;2023-04-25T11:52:34;7.95;;;1.30;;
49029;SDS011;43337;52.070;4.508;2023-04-25T11:55:05;7.45;;;0.82;;
49029;SDS011;43337;52.070;4.508;2023-04-25T11:57:32;6.38;;;0.90;;
49029;SDS011;43337;52.070;4.508;2023-04-25T12:02:44;5.00;;;1.20;;
49029;SDS011;43337;52.070;4.508;2023-04-25T12:05:11;5.10;;;0.88;;
49029;SDS011;43337;52.070;4.508;2023-04-25T12:07:38;2.92;;;0.65;;
49029;SDS011;43337;52.070;4.508;2023-04-25T12:10:10;4.40;;;0.95;;
49029;SDS011;43337;52.070;4.508;2023-04-25T12:12:38;3.88;;;0.65;;
49029;SDS011;43337;52.070;4.508;2023-04-25T12:15:10;4.55;;;0.80;;
49029;SDS011;43337;52.070;4.508;2023-04-25T12:17:45;6.32;;;0.80;;
49029;SDS011;43337;52.070;4.508;2023-04-25T12:20:21;6.25;;;0.73;;
49029;SDS011;43337;52.070;4.508;2023-04-25T12:22:50;6.15;;;1.08;;
49029;SDS011;43337;52.070;4.508;2023-04-25T12:33:18;9.35;;;1.73;;
49029;SDS011;43337;52.070;4.508;2023-04-25T12:35:43;4.68;;;1.05;;
49029;SDS011;43337;52.070;4.508;2023-04-25T12:38:08;7.82;;;1.00;;
49029;SDS011;43337;52.070;4.508;2023-04-25T12:40:34;9.25;;;1.77;;
49029;SDS011;43337;52.070;4.508;2023-04-25T12:42:59;6.97;;;1.00;;
49029;SDS011;43337;52.070;4.508;2023-04-25T12:45:24;5.97;;;0.93;;
49029;SDS011;43337;52.070;4.508;2023-04-25T12:47:50;5.50;;;0.88;;
49029;SDS011;43337;52.070;4.508;2023-04-25T12:50:15;6.80;;;1.05;;
49029;SDS011;43337;52.070;4.508;2023-04-25T12:52:41;10.05;;;1.10;;
49029;SDS011;43337;52.070;4.508;2023-04-25T12:55:06;4.68;;;0.80;;
49029;SDS011;43337;52.070;4.508;2023-04-25T12:57:31;8.38;;;0.95;;
49029;SDS011;43337;52.070;4.508;2023-04-25T12:59:57;8.27;;;1.02;;
49029;SDS011;43337;52.070;4.508;2023-04-25T13:02:22;6.35;;;0.88;;
49029;SDS011;43337;52.070;4.508;2023-04-25T13:04:48;5.90;;;0.88;;
49029;SDS011;43337;52.070;4.508;2023-04-25T13:07:13;5.40;;;0.73;;
49029;SDS011;43337;52.070;4.508;2023-04-25T13:09:38;5.25;;;1.45;;
49029;SDS011;43337;52.070;4.508;2023-04-25T13:12:04;5.50;;;0.80;;
49029;SDS011;43337;52.070;4.508;2023-04-25T13:14:30;7.53;;;2.03;;
49029;SDS011;43337;52.070;4.508;2023-04-25T13:16:55;4.38;;;0.90;;
49029;SDS011;43337;52.070;4.508;2023-04-25T13:19:21;6.65;;;0.82;;
49029;SDS011;43337;52.070;4.508;2023-04-25T13:21:46;5.15;;;0.93;;
49029;SDS011;43337;52.070;4.508;2023-04-25T13:24:11;5.15;;;1.40;;
49029;SDS011;43337;52.070;4.508;2023-04-25T13:26:37;9.05;;;1.38;;
49029;SDS011;43337;52.070;4.508;2023-04-25T13:29:02;6.80;;;0.95;;
49029;SDS011;43337;52.070;4.508;2023-04-25T13:31:28;5.68;;;1.10;;
49029;SDS011;43337;52.070;4.508;2023-04-25T13:33:54;8.52;;;1.40;;
49029;SDS011;43337;52.070;4.508;2023-04-25T13:36:20;14.27;;;2.55;;
49029;SDS011;43337;52.070;4.508;2023-04-25T13:38:45;6.13;;;1.20;;
49029;SDS011;43337;52.070;4.508;2023-04-25T13:41:12;6.82;;;1.20;;
49029;SDS011;43337;52.070;4.508;2023-04-25T13:43:42;5.18;;;1.00;;
49029;SDS011;43337;52.070;4.508;2023-04-25T13:46:08;6.97;;;0.90;;
49029;SDS011;43337;52.070;4.508;2023-04-25T13:48:33;6.50;;;1.00;;
49029;SDS011;43337;52.070;4.508;2023-04-25T13:50:58;4.38;;;0.90;;
49029;SDS011;43337;52.070;4.508;2023-04-25T13:53:24;5.43;;;1.27;;
49029;SDS011;43337;52.070;4.508;2023-04-25T13:55:50;5.68;;;1.08;;
49029;SDS011;43337;52.070;4.508;2023-04-25T13:58:15;8.93;;;1.30;;
49029;SDS011;43337;52.070;4.508;2023-04-25T14:00:40;3.17;;;1.20;;
49029;SDS011;43337;52.070;4.508;2023-04-25T14:03:08;3.05;;;0.70;;
49029;SDS011;43337;52.070;4.508;2023-04-25T14:05:34;7.30;;;1.13;;
49029;SDS011;43337;52.070;4.508;2023-04-25T14:08:03;6.55;;;1.17;;
49029;SDS011;43337;52.070;4.508;2023-04-25T14:10:32;9.88;;;1.83;;
49029;SDS011;43337;52.070;4.508;2023-04-25T14:12:58;4.45;;;0.82;;
49029;SDS011;43337;52.070;4.508;2023-04-25T14:15:23;6.03;;;1.05;;
49029;SDS011;43337;52.070;4.508;2023-04-25T14:17:49;4.93;;;0.77;;
49029;SDS011;43337;52.070;4.508;2023-04-25T14:20:14;7.22;;;1.20;;
49029;SDS011;43337;52.070;4.508;2023-04-25T14:22:40;4.80;;;0.80;;
49029;SDS011;43337;52.070;4.508;2023-04-25T14:25:08;5.15;;;0.73;;
49029;SDS011;43337;52.070;4.508;2023-04-25T14:27:34;6.82;;;1.13;;
49029;SDS011;43337;52.070;4.508;2023-04-25T14:29:59;6.60;;;1.02;;
49029;SDS011;43337;52.070;4.508;2023-04-25T14:32:25;7.80;;;1.58;;
49029;SDS011;43337;52.070;4.508;2023-04-25T14:34:50;4.13;;;0.95;;
49029;SDS011;43337;52.070;4.508;2023-04-25T14:37:16;7.90;;;1.20;;
49029;SDS011;43337;52.070;4.508;2023-04-25T14:39:41;4.18;;;1.00;;
49029;SDS011;43337;52.070;4.508;2023-04-25T14:42:06;4.60;;;0.80;;
49029;SDS011;43337;52.070;4.508;2023-04-25T14:44:32;7.88;;;1.75;;
49029;SDS011;43337;52.070;4.508;2023-04-25T14:46:57;4.35;;;1.10;;
49029;SDS011;43337;52.070;4.508;2023-04-25T14:49:22;6.53;;;1.00;;
49029;SDS011;43337;52.070;4.508;2023-04-25T14:51:48;4.43;;;0.88;;
49029;SDS011;43337;52.070;4.508;2023-04-25T14:54:14;5.90;;;1.25;;